Time;durP1;ratioP1;P1;durP2;ratioP2;P2;SDS_P1;SDS_P2;PMS_P1;PMS_P2;Temp;Humidity;BMP_temperature;BMP_pressure;BME280_temperature;BME280_humidity;BME280_pressure;Samples;Min_cycle;Max_cycle;Signal;HPM_P1;HPM_P2
2022/06/25 00:01:15;;;;;;;26.08;22.98;;;18.10;99.90;;;;;;5056148;28;20090;-86
2022/06/25 00:03:42;;;;;;;25.58;22.75;;;18.00;99.90;;;;;;5054930;28;20037;-85
2022/06/25 00:06:08;;;;;;;27.10;22.58;;;18.10;99.90;;;;;;5072764;28;20064;-85
2022/06/25 00:08:35;;;;;;;26.60;22.15;;;18.10;99.90;;;;;;5074133;28;20075;-84
2022/06/25 00:11:01;;;;;;;30.33;22.95;;;18.00;99.90;;;;;;5038019;28;20040;-84
2022/06/25 00:13:30;;;;;;;28.77;25.65;;;18.00;99.90;;;;;;5022165;28;20052;-85
2022/06/25 00:15:55;;;;;;;25.80;23.17;;;18.00;99.90;;;;;;5026989;28;20034;-86
2022/06/25 00:18:21;;;;;;;28.73;25.13;;;18.00;99.90;;;;;;5060345;28;20064;-84
2022/06/25 00:20:48;;;;;;;30.15;24.50;;;18.00;99.90;;;;;;5028955;28;20087;-86
2022/06/25 00:23:14;;;;;;;33.83;25.75;;;18.10;99.90;;;;;;5027433;28;20040;-86
2022/06/25 00:25:40;;;;;;;28.20;25.10;;;18.00;99.90;;;;;;5045106;28;20076;-86
2022/06/25 00:28:06;;;;;;;27.52;24.45;;;17.90;99.90;;;;;;5024696;28;20131;-85
2022/06/25 00:30:33;;;;;;;32.08;26.10;;;17.90;99.90;;;;;;5027293;28;20041;-87
2022/06/25 00:32:59;;;;;;;34.20;26.50;;;17.90;99.90;;;;;;5023970;28;20129;-85
2022/06/25 00:35:25;;;;;;;32.10;25.35;;;17.90;99.90;;;;;;5073027;28;20132;-84
2022/06/25 00:37:51;;;;;;;33.05;28.23;;;17.80;99.90;;;;;;5077174;28;20037;-84
2022/06/25 00:40:18;;;;;;;28.50;25.48;;;17.80;99.90;;;;;;5049483;28;20032;-85
2022/06/25 00:42:45;;;;;;;30.17;26.55;;;17.70;99.90;;;;;;5030062;28;20151;-85
2022/06/25 00:45:11;;;;;;;31.83;26.80;;;17.80;99.90;;;;;;5061999;28;20047;-85
2022/06/25 00:47:37;;;;;;;34.35;27.88;;;17.70;99.90;;;;;;5030382;28;20041;-85
2022/06/25 00:50:03;;;;;;;35.30;28.85;;;17.60;99.90;;;;;;5080138;28;20037;-86
2022/06/25 00:52:32;;;;;;;30.52;27.08;;;17.60;99.90;;;;;;5041109;28;20041;-86
2022/06/25 00:55:09;;;;;;;33.70;27.50;;;17.70;99.90;;;;;;5066304;28;20140;-85
2022/06/25 00:57:38;;;;;;;32.05;28.30;;;17.70;99.90;;;;;;5051272;28;20033;-85
2022/06/25 01:00:08;;;;;;;33.78;27.38;;;17.60;99.90;;;;;;5033591;28;20033;-84
2022/06/25 01:02:35;;;;;;;33.20;27.27;;;17.50;99.90;;;;;;5079667;28;20041;-84
2022/06/25 01:05:08;;;;;;;35.95;27.83;;;17.50;99.90;;;;;;5082687;28;20098;-85
2022/06/25 01:07:35;;;;;;;35.67;28.40;;;17.50;99.90;;;;;;5076202;28;20076;-84
2022/06/25 01:10:02;;;;;;;32.88;28.63;;;17.50;99.90;;;;;;5079002;28;20108;-85
2022/06/25 01:12:28;;;;;;;37.92;29.00;;;17.60;99.90;;;;;;5048486;28;20103;-84
2022/06/25 01:15:07;;;;;;;33.30;28.13;;;17.50;99.90;;;;;;5051470;28;20080;-85
2022/06/25 01:17:41;;;;;;;34.72;28.20;;;17.50;99.90;;;;;;5037444;28;20103;-85
2022/06/25 01:20:27;;;;;;;36.83;29.73;;;17.40;99.90;;;;;;5049098;28;20033;-82
2022/06/25 01:22:54;;;;;;;34.53;28.60;;;17.40;99.90;;;;;;5048868;28;20498;-85
2022/06/25 01:25:19;;;;;;;44.83;31.45;;;17.30;99.90;;;;;;5068526;28;20400;-85
2022/06/25 01:27:47;;;;;;;35.35;28.83;;;17.50;99.90;;;;;;5076060;28;20041;-85
2022/06/25 01:30:13;;;;;;;33.83;28.98;;;17.40;99.90;;;;;;5054465;28;20048;-84
2022/06/25 01:32:39;;;;;;;36.65;29.63;;;17.40;99.90;;;;;;5063327;28;20053;-84
2022/06/25 01:35:07;;;;;;;39.08;30.23;;;17.30;99.90;;;;;;5072592;28;20071;-84
2022/06/25 01:37:34;;;;;;;37.55;27.55;;;17.30;99.90;;;;;;5050445;28;20048;-85
2022/06/25 01:40:00;;;;;;;37.03;26.75;;;17.30;99.90;;;;;;5029223;28;20051;-84
2022/06/25 01:45:12;;;;;;;35.67;27.10;;;17.20;99.90;;;;;;5046506;28;20499;-84
2022/06/25 01:47:38;;;;;;;37.83;28.58;;;17.20;99.90;;;;;;5046965;28;20040;-84
2022/06/25 01:50:06;;;;;;;35.30;27.88;;;17.10;99.90;;;;;;5073594;28;20045;-83
2022/06/25 01:52:32;;;;;;;37.58;28.02;;;17.10;99.90;;;;;;5060371;28;20148;-84
2022/06/25 01:54:58;;;;;;;32.80;26.52;;;17.00;99.90;;;;;;5076773;28;20043;-86
2022/06/25 01:57:24;;;;;;;31.27;25.65;;;17.10;99.90;;;;;;5029796;28;20037;-85
2022/06/25 01:59:51;;;;;;;31.10;24.02;;;17.10;99.90;;;;;;5026857;28;20045;-85
2022/06/25 02:02:17;;;;;;;32.78;25.83;;;17.20;99.90;;;;;;5026885;28;20043;-85
2022/06/25 02:04:42;;;;;;;27.05;23.55;;;17.00;99.90;;;;;;5077325;28;20037;-84
2022/06/25 02:07:09;;;;;;;25.65;22.95;;;17.00;99.90;;;;;;5041064;28;20056;-85
2022/06/25 02:09:35;;;;;;;27.27;23.10;;;17.10;99.90;;;;;;5046330;28;20041;-86
2022/06/25 02:12:01;;;;;;;30.80;23.55;;;17.10;99.90;;;;;;5063017;28;20404;-85
2022/06/25 02:14:27;;;;;;;28.77;24.15;;;17.10;99.90;;;;;;5047448;28;20491;-85
2022/06/25 02:16:53;;;;;;;26.00;22.35;;;17.00;99.90;;;;;;5048119;28;20033;-84
2022/06/25 02:19:19;;;;;;;26.55;21.63;;;17.10;99.90;;;;;;5042860;28;20063;-84
2022/06/25 02:25:26;;;;;;;28.63;21.45;;;17.10;99.90;;;;;;5057639;28;20052;-85
2022/06/25 02:27:52;;;;;;;24.92;20.42;;;17.00;99.90;;;;;;5021488;28;20033;-86
2022/06/25 02:30:18;;;;;;;27.48;21.67;;;17.10;99.90;;;;;;5075080;28;20040;-86
2022/06/25 02:32:44;;;;;;;25.67;20.50;;;17.00;99.90;;;;;;5063308;28;20075;-86
2022/06/25 02:35:09;;;;;;;27.30;22.20;;;17.10;99.90;;;;;;5043781;28;20112;-84
2022/06/25 02:37:35;;;;;;;23.95;19.92;;;17.00;99.90;;;;;;5064762;28;20052;-86
2022/06/25 02:40:01;;;;;;;25.83;20.77;;;17.00;99.90;;;;;;5059668;28;20034;-84
2022/06/25 02:42:35;;;;;;;25.17;20.65;;;17.00;99.90;;;;;;5041415;28;20071;-82
2022/06/25 02:45:01;;;;;;;;;;;17.10;99.90;;;;;;5055203;28;20164;-83
2022/06/25 02:47:27;;;;;;;23.15;20.08;;;17.00;99.90;;;;;;5063723;28;20301;-84
2022/06/25 02:49:53;;;;;;;24.33;20.60;;;16.90;99.90;;;;;;5043677;28;20441;-86
2022/06/25 02:52:19;;;;;;;23.02;18.38;;;17.20;99.90;;;;;;5043668;28;20139;-85
2022/06/25 02:54:44;;;;;;;23.27;19.55;;;17.00;99.90;;;;;;5044787;28;20045;-84
2022/06/25 02:59:54;;;;;;;23.85;19.55;;;17.10;99.90;;;;;;5042991;28;20041;-86
2022/06/25 03:02:20;;;;;;;25.75;19.55;;;17.00;99.90;;;;;;5024511;28;20396;-86
2022/06/25 03:04:45;;;;;;;24.15;20.25;;;16.80;99.90;;;;;;5072180;28;20040;-85
2022/06/25 03:07:29;;;;;;;26.67;19.40;;;16.80;99.90;;;;;;5040382;28;20132;-85
2022/06/25 03:09:58;;;;;;;25.27;18.95;;;16.80;99.90;;;;;;5038436;28;20461;-86
2022/06/25 03:12:24;;;;;;;27.17;19.60;;;16.70;99.90;;;;;;5071635;28;20140;-86
2022/06/25 03:14:49;;;;;;;21.15;18.20;;;16.80;99.90;;;;;;5044001;28;20123;-84
2022/06/25 03:17:15;;;;;;;20.15;17.85;;;16.80;99.90;;;;;;5040233;28;20052;-85
2022/06/25 03:19:41;;;;;;;21.38;19.00;;;16.70;99.90;;;;;;5044083;28;20102;-86
2022/06/25 03:22:06;;;;;;;21.65;18.52;;;16.80;99.90;;;;;;5023692;28;20404;-84
2022/06/25 03:24:32;;;;;;;21.70;17.42;;;16.70;99.90;;;;;;5038673;28;20033;-85
2022/06/25 03:26:58;;;;;;;21.02;17.15;;;16.70;99.90;;;;;;5075281;28;20415;-84
2022/06/25 03:29:23;;;;;;;24.02;18.30;;;16.80;99.90;;;;;;5029211;28;20368;-86
2022/06/25 03:31:49;;;;;;;18.25;16.05;;;16.70;99.90;;;;;;5026965;28;20052;-84
2022/06/25 03:34:15;;;;;;;23.60;17.08;;;16.80;99.90;;;;;;5076389;28;20485;-85
2022/06/25 03:36:40;;;;;;;19.15;16.35;;;16.80;99.90;;;;;;5074544;28;20356;-86
2022/06/25 03:39:06;;;;;;;18.52;15.07;;;16.80;99.90;;;;;;5066355;28;20037;-84
2022/06/25 03:41:38;;;;;;;20.08;15.98;;;16.80;99.90;;;;;;5060423;28;20041;-85
2022/06/25 03:44:05;;;;;;;17.55;15.35;;;16.70;99.90;;;;;;5055364;28;20052;-84
2022/06/25 03:46:31;;;;;;;15.82;14.13;;;16.80;99.90;;;;;;5045435;28;20055;-85
2022/06/25 03:48:58;;;;;;;19.55;15.50;;;16.80;99.90;;;;;;5030848;28;20479;-85
2022/06/25 03:51:42;;;;;;;19.05;15.23;;;16.80;99.90;;;;;;5043309;28;20052;-87
2022/06/25 03:54:08;;;;;;;17.27;13.93;;;16.90;99.90;;;;;;5027603;28;20091;-87
2022/06/25 03:56:33;;;;;;;17.95;14.80;;;16.80;99.90;;;;;;5054823;28;20403;-86
2022/06/25 03:58:59;;;;;;;15.55;13.40;;;16.90;99.90;;;;;;5036555;28;20037;-85
2022/06/25 04:01:26;;;;;;;16.10;13.63;;;16.90;99.90;;;;;;5082400;28;20614;-85
2022/06/25 04:03:51;;;;;;;16.08;14.02;;;16.90;99.90;;;;;;5039215;28;20069;-88
2022/06/25 04:06:37;;;;;;;17.42;14.32;;;16.90;99.90;;;;;;5062230;28;20058;-84
2022/06/25 04:09:04;;;;;;;13.63;12.23;;;16.90;99.90;;;;;;5046011;28;20040;-87
2022/06/25 04:11:30;;;;;;;17.50;13.60;;;17.00;99.90;;;;;;5031455;28;20175;-85
2022/06/25 04:13:55;;;;;;;17.27;13.68;;;17.10;99.90;;;;;;5077896;28;20135;-86
2022/06/25 04:16:22;;;;;;;15.05;12.60;;;17.10;99.90;;;;;;5023910;28;20044;-85
2022/06/25 04:18:48;;;;;;;14.73;12.77;;;17.20;99.90;;;;;;5081131;28;20047;-85
2022/06/25 04:21:14;;;;;;;15.70;12.45;;;17.20;99.90;;;;;;5063047;28;20037;-86
2022/06/25 04:23:40;;;;;;;16.85;11.68;;;17.20;99.90;;;;;;5028566;28;20056;-86
2022/06/25 04:26:06;;;;;;;14.57;11.40;;;17.60;99.90;;;;;;5027235;28;20215;-86
2022/06/25 04:31:16;;;;;;;11.98;10.70;;;17.90;99.90;;;;;;5051349;28;20045;-86
2022/06/25 04:33:45;;;;;;;10.57;5.65;;;17.80;99.90;;;;;;5021736;28;20037;-81
2022/06/25 04:36:10;;;;;;;8.55;6.95;;;18.20;99.90;;;;;;5027642;28;20036;-83
2022/06/25 04:38:36;;;;;;;8.05;7.20;;;19.10;99.90;;;;;;5055617;28;20044;-82
2022/06/25 04:41:02;;;;;;;8.90;7.97;;;19.90;99.90;;;;;;5074036;28;20056;-82
2022/06/25 04:43:28;;;;;;;10.48;6.90;;;20.50;99.90;;;;;;5028867;28;20087;-83
2022/06/25 04:45:53;;;;;;;7.47;6.75;;;20.90;99.90;;;;;;5043385;28;20071;-84
2022/06/25 04:48:19;;;;;;;10.98;7.55;;;21.60;99.90;;;;;;5030857;28;20045;-84
2022/06/25 04:50:46;;;;;;;9.23;6.65;;;22.20;99.90;;;;;;5043817;28;20080;-82
2022/06/25 04:53:13;;;;;;;7.90;5.82;;;22.30;99.90;;;;;;5044746;28;20045;-82
2022/06/25 04:55:39;;;;;;;9.10;6.07;;;22.70;99.90;;;;;;5045794;28;20075;-82
2022/06/25 04:58:05;;;;;;;6.63;5.22;;;22.70;99.90;;;;;;5029722;28;20037;-82
2022/06/25 05:00:30;;;;;;;6.70;5.85;;;23.00;99.90;;;;;;5046828;28;20029;-82
2022/06/25 05:02:56;;;;;;;10.27;7.00;;;23.10;99.90;;;;;;5052910;28;20455;-82
2022/06/25 05:05:22;;;;;;;7.03;5.93;;;22.40;99.90;;;;;;5040677;28;20041;-80
2022/06/25 05:07:47;;;;;;;8.75;6.72;;;21.90;99.90;;;;;;5069290;28;20126;-82
2022/06/25 05:10:13;;;;;;;11.45;6.57;;;21.30;99.90;;;;;;5059080;28;20045;-81
2022/06/25 05:15:23;;;;;;;8.77;7.07;;;20.60;99.90;;;;;;5039551;28;20444;-81
2022/06/25 05:17:49;;;;;;;9.15;6.53;;;20.30;99.90;;;;;;5050283;28;20190;-81
2022/06/25 05:20:14;;;;;;;12.82;7.53;;;20.20;99.90;;;;;;5049879;28;20075;-82
2022/06/25 05:26:21;;;;;;;9.20;6.28;;;20.00;99.90;;;;;;5056181;28;20130;-82
2022/06/25 05:28:47;;;;;;;11.15;5.95;;;19.90;99.90;;;;;;5069585;28;20214;-82
2022/06/25 05:31:13;;;;;;;12.02;5.95;;;19.80;99.90;;;;;;5059571;28;20052;-82
2022/06/25 05:33:38;;;;;;;6.85;4.80;;;19.70;99.90;;;;;;5043702;28;20080;-84
2022/06/25 05:36:04;;;;;;;9.73;6.28;;;19.70;99.90;;;;;;5043550;28;20044;-83
2022/06/25 05:38:30;;;;;;;11.45;7.07;;;19.70;99.90;;;;;;5039773;28;20068;-82
2022/06/25 05:40:55;;;;;;;9.18;5.72;;;19.70;99.90;;;;;;5040156;28;20068;-81
2022/06/25 05:43:22;;;;;;;9.43;6.22;;;19.60;99.90;;;;;;5046343;28;20097;-81
2022/06/25 05:45:48;;;;;;;13.02;6.45;;;19.70;99.90;;;;;;5040587;28;20045;-81
2022/06/25 05:48:13;;;;;;;8.77;5.53;;;19.70;99.90;;;;;;5043073;28;20048;-81
2022/06/25 05:50:39;;;;;;;7.07;6.10;;;19.60;99.90;;;;;;5078362;28;20037;-82
2022/06/25 05:53:05;;;;;;;10.18;6.38;;;19.60;99.90;;;;;;5042033;28;20052;-81
2022/06/25 05:55:31;;;;;;;9.85;7.57;;;19.60;99.90;;;;;;5028240;28;20048;-81
2022/06/25 05:57:58;;;;;;;12.13;7.40;;;19.70;99.90;;;;;;5025661;28;20051;-83
2022/06/25 06:00:26;;;;;;;10.73;6.13;;;19.70;99.90;;;;;;5024911;28;20200;-83
2022/06/25 06:02:52;;;;;;;9.05;6.60;;;19.60;99.90;;;;;;5026536;28;20365;-82
2022/06/25 06:05:18;;;;;;;10.82;6.88;;;19.80;99.90;;;;;;5048033;28;20087;-80
2022/06/25 06:07:44;;;;;;;12.77;7.55;;;19.70;99.90;;;;;;5043265;28;20115;-81
2022/06/25 06:10:11;;;;;;;10.15;6.38;;;19.80;99.90;;;;;;5073725;28;20033;-79
2022/06/25 06:12:37;;;;;;;9.07;7.00;;;19.80;99.90;;;;;;5043446;28;20049;-85
2022/06/25 06:15:03;;;;;;;10.80;6.85;;;19.70;99.90;;;;;;5046181;28;20112;-80
2022/06/25 06:17:29;;;;;;;10.93;7.03;;;19.70;99.90;;;;;;5051305;28;20029;-80
2022/06/25 06:19:55;;;;;;;14.60;7.60;;;19.70;99.90;;;;;;5068830;28;20070;-81
2022/06/25 06:26:01;;;;;;;9.95;7.03;;;19.60;99.90;;;;;;5055043;28;20039;-81
2022/06/25 06:28:27;;;;;;;10.68;7.10;;;19.60;99.90;;;;;;5059548;28;20037;-81
2022/06/25 06:30:53;;;;;;;13.05;7.90;;;19.60;99.90;;;;;;5054935;28;20059;-79
2022/06/25 06:33:18;;;;;;;8.88;7.45;;;19.60;99.90;;;;;;5061747;28;20056;-80
2022/06/25 06:35:44;;;;;;;9.98;7.05;;;19.70;99.90;;;;;;5081086;28;20094;-80
2022/06/25 06:38:10;;;;;;;8.45;5.63;;;19.70;99.90;;;;;;5028339;28;20041;-78
2022/06/25 06:40:35;;;;;;;9.02;4.65;;;19.80;99.90;;;;;;5043747;28;20061;-78
2022/06/25 06:43:01;;;;;;;9.38;4.80;;;20.00;99.90;;;;;;5046339;28;20033;-79
2022/06/25 06:45:26;;;;;;;11.32;6.38;;;20.00;99.90;;;;;;5077116;28;20041;-76
2022/06/25 06:47:52;;;;;;;10.77;6.93;;;20.20;99.90;;;;;;5024330;28;20407;-80
2022/06/25 06:50:18;;;;;;;9.20;4.68;;;20.20;99.90;;;;;;5066948;28;20067;-78
2022/06/25 06:52:44;;;;;;;9.13;6.25;;;20.30;99.90;;;;;;5047050;28;20054;-77
2022/06/25 06:55:09;;;;;;;10.45;5.70;;;20.40;99.90;;;;;;5059916;28;20041;-79
2022/06/25 06:57:36;;;;;;;10.10;5.90;;;20.40;99.90;;;;;;5072561;28;20049;-78
2022/06/25 07:00:04;;;;;;;8.70;5.70;;;20.60;99.90;;;;;;5036495;28;20067;-78
2022/06/25 07:02:30;;;;;;;7.57;5.70;;;20.50;99.90;;;;;;5019534;28;20049;-76
2022/06/25 07:04:56;;;;;;;8.13;5.50;;;20.50;99.90;;;;;;5018060;28;20111;-77
2022/06/25 07:07:22;;;;;;;10.27;5.95;;;20.60;99.90;;;;;;5066471;28;20163;-75
2022/06/25 07:09:47;;;;;;;7.43;4.85;;;20.60;99.90;;;;;;5037993;28;20106;-75
2022/06/25 07:12:13;;;;;;;12.00;4.47;;;20.60;99.90;;;;;;5032364;28;20051;-75
2022/06/25 07:14:39;;;;;;;9.32;4.90;;;20.70;99.90;;;;;;5016278;28;20060;-74
2022/06/25 07:17:05;;;;;;;7.55;5.22;;;20.70;99.90;;;;;;5068865;28;20037;-75
2022/06/25 07:19:30;;;;;;;9.98;5.30;;;20.70;99.90;;;;;;5066590;28;20037;-76
2022/06/25 07:21:57;;;;;;;7.78;5.15;;;20.70;99.90;;;;;;5049213;28;20109;-74
2022/06/25 07:24:23;;;;;;;12.10;5.20;;;20.80;99.90;;;;;;5052662;28;20037;-75
2022/06/25 07:26:49;;;;;;;7.97;5.28;;;20.90;99.90;;;;;;5052631;28;20120;-75
2022/06/25 07:29:14;;;;;;;6.15;4.32;;;20.90;99.90;;;;;;5020459;28;22352;-75
2022/06/25 07:31:41;;;;;;;9.75;4.80;;;21.20;99.90;;;;;;5024473;28;20057;-75
2022/06/25 07:34:06;;;;;;;8.43;4.32;;;21.20;99.90;;;;;;5049062;28;20066;-74
2022/06/25 07:36:32;;;;;;;8.90;4.25;;;21.20;99.90;;;;;;5042458;28;20063;-74
2022/06/25 07:39:00;;;;;;;8.00;4.57;;;21.40;99.90;;;;;;5073000;28;20040;-74
2022/06/25 07:41:26;;;;;;;10.32;3.80;;;21.30;99.90;;;;;;5075295;28;20051;-74
2022/06/25 07:43:52;;;;;;;8.30;4.50;;;21.40;99.90;;;;;;5081167;28;20044;-74
2022/06/25 07:46:18;;;;;;;7.85;3.90;;;21.40;99.90;;;;;;5030097;28;20049;-74
2022/06/25 07:48:44;;;;;;;7.00;3.63;;;21.50;99.90;;;;;;5046357;28;20064;-74
2022/06/25 07:54:12;;;;;;;12.85;3.60;;;21.60;99.90;;;;;;5047121;28;20067;-74
2022/06/25 07:56:38;;;;;;;7.00;3.40;;;21.70;99.90;;;;;;5023835;28;20045;-75
2022/06/25 07:59:05;;;;;;;6.88;3.30;;;21.80;99.90;;;;;;5040879;28;20130;-76
2022/06/25 08:01:30;;;;;;;7.45;3.10;;;21.90;99.90;;;;;;5043034;28;20061;-76
2022/06/25 08:03:56;;;;;;;4.80;2.78;;;21.80;99.90;;;;;;5059933;28;20084;-75
2022/06/25 08:06:22;;;;;;;4.35;2.70;;;22.00;99.90;;;;;;5040837;28;20074;-75
2022/06/25 08:08:47;;;;;;;6.32;2.53;;;22.00;99.90;;;;;;5048088;28;20067;-75
2022/06/25 08:11:13;;;;;;;5.97;2.63;;;22.00;99.90;;;;;;5078161;28;20479;-76
2022/06/25 08:13:39;;;;;;;4.60;2.28;;;22.10;99.90;;;;;;5083718;28;20477;-77
2022/06/25 08:16:05;;;;;;;6.95;2.33;;;22.10;99.90;;;;;;5045056;28;20065;-75
2022/06/25 08:18:38;;;;;;;4.15;1.92;;;22.20;99.90;;;;;;5047081;28;20041;-79
2022/06/25 08:21:05;;;;;;;9.05;2.10;;;22.30;99.90;;;;;;5050144;28;20488;-81
2022/06/25 08:23:31;;;;;;;7.13;2.40;;;22.50;99.90;;;;;;5043261;28;20045;-79
2022/06/25 08:25:56;;;;;;;7.03;2.42;;;22.70;99.90;;;;;;5045192;28;20045;-81
2022/06/25 08:28:23;;;;;;;6.88;2.40;;;22.60;99.90;;;;;;5048889;28;20415;-81
2022/06/25 08:30:49;;;;;;;5.90;2.58;;;22.70;99.90;;;;;;5072733;28;20050;-81
2022/06/25 08:33:15;;;;;;;8.32;2.40;;;22.80;99.90;;;;;;5036142;28;20075;-81
2022/06/25 08:35:44;;;;;;;9.05;2.50;;;23.10;99.90;;;;;;5035050;28;20076;-81
2022/06/25 08:38:10;;;;;;;8.15;2.20;;;23.60;99.90;;;;;;5065891;28;20128;-81
2022/06/25 08:40:37;;;;;;;6.07;2.20;;;23.70;99.90;;;;;;5064777;28;20124;-81
2022/06/25 08:43:05;;;;;;;6.88;2.03;;;24.00;99.90;;;;;;5068463;28;20401;-81
2022/06/25 08:45:30;;;;;;;7.22;2.40;;;23.90;99.90;;;;;;5085829;28;20080;-81
2022/06/25 08:47:59;;;;;;;7.18;2.05;;;23.70;99.90;;;;;;5050362;28;20080;-81
2022/06/25 08:50:24;;;;;;;9.07;2.20;;;23.60;99.90;;;;;;5068843;28;20124;-81
2022/06/25 08:52:53;;;;;;;5.45;2.28;;;23.40;99.90;;;;;;5050979;28;20131;-81
2022/06/25 08:55:32;;;;;;;4.38;2.10;;;23.20;99.90;;;;;;5084798;28;20119;-81
2022/06/25 08:58:00;;;;;;;6.30;2.20;;;23.00;99.90;;;;;;5065652;28;20148;-80
2022/06/25 09:00:26;;;;;;;8.10;2.20;;;23.10;99.90;;;;;;5012679;28;20048;-80
2022/06/25 09:02:52;;;;;;;7.18;1.90;;;23.20;99.90;;;;;;5027953;28;20048;-77
2022/06/25 09:05:30;;;;;;;6.88;2.20;;;23.30;99.90;;;;;;5024227;28;20033;-77
2022/06/25 09:08:02;;;;;;;4.82;2.17;;;23.10;99.90;;;;;;5043804;28;20065;-77
2022/06/25 09:10:29;;;;;;;11.35;2.80;;;22.90;99.90;;;;;;5067252;28;20056;-76
2022/06/25 09:12:57;;;;;;;11.70;2.42;;;22.80;99.90;;;;;;5036493;28;20036;-78
2022/06/25 09:15:27;;;;;;;7.18;2.30;;;22.90;99.90;;;;;;5064830;28;20032;-79
2022/06/25 09:17:53;;;;;;;5.10;2.20;;;23.00;99.90;;;;;;5058060;28;20045;-80
2022/06/25 09:20:20;;;;;;;7.53;2.40;;;23.20;99.90;;;;;;5077306;28;20976;-77
2022/06/25 09:23:12;;;;;;;9.45;2.40;;;23.20;99.90;;;;;;5020994;28;20167;-77
2022/06/25 09:25:41;;;;;;;4.82;2.50;;;23.20;99.90;;;;;;5080897;28;20053;-76
2022/06/25 09:28:07;;;;;;;6.72;2.28;;;23.10;99.90;;;;;;5024966;28;20057;-76
2022/06/25 09:30:32;;;;;;;10.25;2.22;;;23.30;99.90;;;;;;5040546;28;20071;-75
2022/06/25 09:33:00;;;;;;;8.40;2.30;;;23.50;99.90;;;;;;5080443;28;21156;-75
2022/06/25 09:35:33;;;;;;;5.50;2.30;;;23.50;99.90;;;;;;5080338;28;20078;-76
2022/06/25 09:38:04;;;;;;;3.55;1.90;;;23.40;99.90;;;;;;5042698;28;20033;-76
2022/06/25 09:40:30;;;;;;;7.63;1.90;;;23.30;99.90;;;;;;5057956;28;20839;-76
2022/06/25 09:43:09;;;;;;;5.93;2.30;;;23.40;99.90;;;;;;5077296;28;20123;-77
2022/06/25 09:45:36;;;;;;;26.48;10.52;;;23.50;99.90;;;;;;5072978;28;20041;-77
2022/06/25 09:48:02;;;;;;;9.40;3.80;;;23.50;99.90;;;;;;5023053;28;20056;-76
2022/06/25 09:50:28;;;;;;;9.02;3.30;;;23.70;99.90;;;;;;5038921;28;20057;-80
2022/06/25 09:52:56;;;;;;;4.55;2.05;;;24.00;99.90;;;;;;5050836;28;20115;-80
2022/06/25 09:55:33;;;;;;;11.00;3.38;;;23.90;99.90;;;;;;5025363;28;20086;-78
2022/06/25 09:58:04;;;;;;;17.52;7.03;;;24.00;99.90;;;;;;5071295;28;20037;-80
2022/06/25 10:00:30;;;;;;;12.57;2.40;;;24.10;99.90;;;;;;5020527;28;20029;-78
2022/06/25 10:02:58;;;;;;;24.67;2.20;;;24.30;99.90;;;;;;5023904;28;20060;-79
2022/06/25 10:05:37;;;;;;;7.72;1.77;;;24.30;99.90;;;;;;5054361;28;20045;-80
2022/06/25 10:08:10;;;;;;;9.75;1.95;;;24.40;99.90;;;;;;5068465;28;20653;-80
2022/06/25 10:10:44;;;;;;;4.00;1.60;;;24.30;99.90;;;;;;5046927;28;20055;-79
2022/06/25 10:13:11;;;;;;;;;;;24.20;99.90;;;;;;5042444;28;20062;-80
2022/06/25 10:15:37;;;;;;;5.13;1.50;;;24.40;99.90;;;;;;5022460;28;19920;-79
2022/06/25 10:18:06;;;;;;;3.92;1.60;;;24.60;99.90;;;;;;5023563;28;20105;-78
2022/06/25 10:20:33;;;;;;;7.65;1.60;;;24.60;99.90;;;;;;5038581;28;20365;-78
2022/06/25 10:23:03;;;;;;;5.78;1.42;;;24.60;99.90;;;;;;5021288;28;20045;-78
2022/06/25 10:25:30;;;;;;;9.80;1.50;;;24.50;99.90;;;;;;5039891;28;20741;-78
2022/06/25 10:28:11;;;;;;;4.00;1.52;;;24.50;99.90;;;;;;5052326;28;20033;-78
2022/06/25 10:30:51;;;;;;;6.88;1.58;;;24.70;99.90;;;;;;5041554;28;20045;-78
2022/06/25 10:33:27;;;;;;;2.78;1.50;;;24.90;99.90;;;;;;5045185;28;20045;-78
2022/06/25 10:35:58;;;;;;;4.60;1.55;;;25.40;99.90;;;;;;5032750;28;20120;-79
2022/06/25 10:45:15;;;;;;;3.67;1.65;;;24.90;99.90;;;;;;5066351;28;20044;-76
2022/06/25 10:47:41;;;;;;;3.80;1.60;;;24.60;99.90;;;;;;5016520;28;20053;-76
2022/06/25 10:50:22;;;;;;;5.43;1.80;;;24.50;99.90;;;;;;5056203;28;20431;-76
2022/06/25 10:53:03;;;;;;;4.28;1.67;;;24.20;99.90;;;;;;5058263;28;20061;-76
2022/06/25 10:55:58;;;;;;;3.28;1.40;;;23.90;99.90;;;;;;5078872;28;20814;-78
2022/06/25 10:58:26;;;;;;;8.55;1.92;;;23.80;99.90;;;;;;5047458;28;20064;-75
2022/06/25 11:01:03;;;;;;;6.47;1.50;;;23.60;99.90;;;;;;5029683;28;20049;-76
2022/06/25 11:03:30;;;;;;;6.13;1.70;;;23.40;99.90;;;;;;5065345;28;20072;-76
2022/06/25 11:06:00;;;;;;;4.32;1.58;;;23.30;99.90;;;;;;5036775;28;20041;-75
2022/06/25 11:08:36;;;;;;;4.43;1.30;;;23.10;99.90;;;;;;5034772;28;20142;-75
2022/06/25 11:11:03;;;;;;;3.33;1.52;;;23.10;99.90;;;;;;5056733;28;20083;-75
2022/06/25 11:13:29;;;;;;;4.72;1.50;;;22.90;99.90;;;;;;5024270;28;20103;-75
2022/06/25 11:15:57;;;;;;;4.32;1.55;;;22.80;99.90;;;;;;5052863;28;20752;-75
2022/06/25 11:18:22;;;;;;;4.90;1.40;;;22.70;99.90;;;;;;5037871;28;20095;-75
2022/06/25 11:20:48;;;;;;;6.85;1.50;;;22.60;99.90;;;;;;5040564;28;20068;-77
2022/06/25 11:23:15;;;;;;;2.70;1.50;;;22.60;99.90;;;;;;5064403;28;20053;-77
2022/06/25 11:28:48;;;;;;;6.43;1.30;;;22.50;99.90;;;;;;5032589;28;20049;-78
2022/06/25 11:31:22;;;;;;;4.28;1.38;;;22.50;99.90;;;;;;5064368;28;20067;-76
2022/06/25 11:33:51;;;;;;;6.90;1.40;;;22.60;99.90;;;;;;5017690;28;20060;-76
2022/06/25 11:36:17;;;;;;;2.63;1.30;;;22.80;99.90;;;;;;5036991;28;20048;-76
2022/06/25 11:38:54;;;;;;;4.65;1.27;;;23.00;99.90;;;;;;5017513;28;20069;-76
2022/06/25 11:41:29;;;;;;;4.15;1.30;;;23.10;99.90;;;;;;5064958;28;20059;-75
2022/06/25 11:44:03;;;;;;;3.40;1.13;;;23.30;99.90;;;;;;5019423;28;20136;-76
2022/06/25 11:46:29;;;;;;;2.38;1.13;;;23.70;99.90;;;;;;5037897;28;20094;-75
2022/06/25 11:48:57;;;;;;;2.88;1.38;;;24.00;99.90;;;;;;5038658;28;20052;-75
2022/06/25 11:51:26;;;;;;;4.05;1.42;;;24.30;99.90;;;;;;5057367;28;20099;-76
2022/06/25 11:57:40;;;;;;;1.92;1.20;;;24.90;99.90;;;;;;5050034;28;20028;-76
2022/06/25 12:00:09;;;;;;;2.10;1.00;;;25.10;99.90;;;;;;5035211;28;20404;-77
2022/06/25 12:02:35;;;;;;;4.35;1.10;;;25.30;99.90;;;;;;5021272;28;20472;-77
2022/06/25 12:05:02;;;;;;;2.88;1.00;;;25.20;99.90;;;;;;5020812;28;20036;-77
2022/06/25 12:07:33;;;;;;;8.23;2.50;;;25.20;99.90;;;;;;5034940;28;20063;-77
2022/06/25 12:10:10;;;;;;;2.25;1.20;;;25.00;99.90;;;;;;5037639;28;20148;-77
2022/06/25 12:12:38;;;;;;;5.57;1.48;;;24.80;99.90;;;;;;5022187;28;20057;-78
2022/06/25 12:15:04;;;;;;;2.53;1.20;;;24.70;99.90;;;;;;5024057;28;20481;-77
2022/06/25 12:17:38;;;;;;;4.95;1.10;;;24.50;99.90;;;;;;5032494;28;20099;-78
2022/06/25 12:20:08;;;;;;;5.90;1.02;;;24.30;99.90;;;;;;5059841;28;20037;-77
2022/06/25 12:22:40;;;;;;;22.60;1.75;;;24.10;99.90;;;;;;5024307;28;20048;-76
2022/06/25 12:25:07;;;;;;;5.55;1.38;;;23.90;99.90;;;;;;5018001;28;20061;-77
2022/06/25 12:27:45;;;;;;;5.95;1.58;;;23.60;99.90;;;;;;5040930;28;20084;-76
2022/06/25 12:30:10;;;;;;;7.78;1.50;;;23.10;99.90;;;;;;5059566;28;20041;-76
2022/06/25 12:32:39;;;;;;;2.85;1.50;;;22.70;99.90;;;;;;5049260;28;20067;-77
2022/06/25 12:35:20;;;;;;;6.43;1.95;;;22.40;99.90;;;;;;5059900;28;20053;-77
2022/06/25 12:38:05;;;;;;;4.78;1.90;;;22.00;99.90;;;;;;5031039;28;20041;-77
2022/06/25 12:40:40;;;;;;;4.45;1.70;;;21.70;99.90;;;;;;5048611;28;20238;-76
2022/06/25 12:43:07;;;;;;;3.63;1.92;;;21.60;99.90;;;;;;5022397;28;20383;-77
2022/06/25 12:45:34;;;;;;;5.72;2.03;;;21.50;99.90;;;;;;5038461;28;20111;-76
2022/06/25 12:48:01;;;;;;;5.00;2.25;;;21.40;99.90;;;;;;5038404;28;20404;-77
2022/06/25 12:50:30;;;;;;;5.00;1.80;;;21.40;99.90;;;;;;5071069;28;20111;-75
2022/06/25 12:53:08;;;;;;;3.75;2.08;;;21.60;99.90;;;;;;5021667;28;20061;-75
2022/06/25 12:55:34;;;;;;;2.72;1.60;;;21.50;99.90;;;;;;5018613;28;20049;-77
2022/06/25 12:58:12;;;;;;;7.38;1.80;;;21.60;99.90;;;;;;5039431;28;20104;-76
2022/06/25 13:00:39;;;;;;;6.68;2.13;;;21.70;99.90;;;;;;5019634;28;20144;-77
2022/06/25 13:03:07;;;;;;;13.95;3.35;;;21.80;99.90;;;;;;5034709;28;20055;-77
2022/06/25 13:05:33;;;;;;;4.82;2.17;;;21.90;99.90;;;;;;5038973;28;20040;-77
2022/06/25 13:08:00;;;;;;;6.85;2.60;;;21.80;99.90;;;;;;5037842;28;20685;-76
2022/06/25 13:10:25;;;;;;;7.63;2.70;;;21.90;99.90;;;;;;5067239;28;20081;-77
2022/06/25 13:12:53;;;;;;;3.80;2.22;;;22.10;99.90;;;;;;5039115;28;20175;-76
2022/06/25 13:15:19;;;;;;;7.20;2.40;;;22.00;99.90;;;;;;5046850;28;20074;-77
2022/06/25 13:17:46;;;;;;;7.57;2.63;;;22.20;99.90;;;;;;5061863;28;20083;-75
2022/06/25 13:20:13;;;;;;;7.38;2.45;;;22.40;99.90;;;;;;5049875;28;20060;-77